Time;durP1;ratioP1;P1;durP2;ratioP2;P2;SDS_P1;SDS_P2;PMS_P1;PMS_P2;Temp;Humidity;BMP_temperature;BMP_pressure;BME280_temperature;BME280_humidity;BME280_pressure;Samples;Min_cycle;Max_cycle;Signal;HPM_P1;HPM_P2
2022/05/18 00:00:30;;;;;;;5.18;3.90;;;;;;;10.13;100.00;93546.88;2085718;28;20107;-83
2022/05/18 00:01:31;;;;;;;5.38;4.25;;;;;;;10.06;100.00;93558.41;2085946;28;20029;-83
2022/05/18 00:02:34;;;;;;;6.30;4.05;;;;;;;10.13;100.00;93552.22;2074270;28;20076;-83
2022/05/18 00:03:39;;;;;;;4.40;4.00;;;;;;;10.15;100.00;93552.59;2089867;28;20585;-83
2022/05/18 00:04:40;;;;;;;5.28;3.85;;;;;;;10.06;100.00;93561.09;2088729;28;20063;-83
2022/05/18 00:05:41;;;;;;;5.10;3.80;;;;;;;10.04;100.00;93552.69;2085563;28;20049;-83
2022/05/18 00:06:42;;;;;;;4.85;3.55;;;;;;;10.03;100.00;93556.53;2079694;28;20497;-83
2022/05/18 00:07:43;;;;;;;4.82;3.78;;;;;;;10.04;100.00;93546.59;2083525;28;20060;-84
2022/05/18 00:08:44;;;;;;;4.70;4.22;;;;;;;10.09;100.00;93544.25;2088111;28;20028;-83
2022/05/18 00:09:45;;;;;;;5.28;3.97;;;;;;;10.04;100.00;93544.69;2081328;28;20498;-83
2022/05/18 00:10:48;;;;;;;4.25;3.85;;;;;;;10.07;100.00;93556.50;2081530;28;20044;-83
2022/05/18 00:11:49;;;;;;;6.25;3.70;;;;;;;9.97;100.00;93546.72;2090302;28;20025;-83
2022/05/18 00:12:50;;;;;;;3.85;3.50;;;;;;;9.97;100.00;93552.81;2092771;28;20048;-82
2022/05/18 00:13:54;;;;;;;6.40;3.92;;;;;;;10.01;100.00;93548.19;2089732;28;20120;-83
2022/05/18 00:14:55;;;;;;;9.05;3.58;;;;;;;9.92;100.00;93552.47;2098247;28;20028;-83
2022/05/18 00:15:56;;;;;;;6.75;3.83;;;;;;;9.94;100.00;93553.59;2089741;28;20029;-82
2022/05/18 00:16:59;;;;;;;6.57;4.20;;;;;;;9.97;100.00;93544.78;2089938;28;20397;-83
2022/05/18 00:18:01;;;;;;;6.10;3.95;;;;;;;9.86;100.00;93549.50;2090055;28;20094;-83
2022/05/18 00:19:02;;;;;;;6.32;3.90;;;;;;;9.87;100.00;93548.34;2089866;28;20021;-83
2022/05/18 00:20:04;;;;;;;4.53;3.95;;;;;;;9.95;100.00;93547.09;2084835;28;20044;-82
2022/05/18 00:21:06;;;;;;;6.85;3.83;;;;;;;9.90;100.00;93552.88;2086837;28;20024;-83
2022/05/18 00:22:07;;;;;;;3.80;3.40;;;;;;;9.93;100.00;93551.34;2081612;28;20040;-83
2022/05/18 00:23:09;;;;;;;8.05;4.32;;;;;;;10.10;100.00;93553.03;2082973;28;20030;-83
2022/05/18 00:24:10;;;;;;;4.72;3.80;;;;;;;10.07;100.00;93548.47;2088312;28;20075;-83
2022/05/18 00:25:12;;;;;;;5.13;3.80;;;;;;;10.04;100.00;93549.28;2081518;28;20033;-83
2022/05/18 00:26:13;;;;;;;4.50;4.10;;;;;;;9.99;100.00;93553.16;2096136;28;20514;-83
2022/05/18 00:27:14;;;;;;;6.65;4.30;;;;;;;9.95;100.00;93551.69;2095675;28;20016;-83
2022/05/18 00:28:15;;;;;;;5.45;4.10;;;;;;;9.98;100.00;93559.66;2081518;28;20064;-83
2022/05/18 00:29:16;;;;;;;7.07;4.32;;;;;;;9.96;100.00;93561.97;2081665;28;20029;-84
2022/05/18 00:30:19;;;;;;;5.13;3.85;;;;;;;9.92;100.00;93557.81;2089698;28;20021;-82
2022/05/18 00:31:20;;;;;;;5.80;4.28;;;;;;;9.76;100.00;93558.41;2096767;28;20431;-83
2022/05/18 00:32:21;;;;;;;4.47;4.07;;;;;;;9.81;100.00;93564.06;2088877;28;20063;-83
2022/05/18 00:33:22;;;;;;;6.45;3.97;;;;;;;9.77;100.00;93566.00;2090467;28;20021;-84
2022/05/18 00:34:23;;;;;;;5.05;4.18;;;;;;;9.93;100.00;93567.38;2084781;28;20502;-84
2022/05/18 00:35:25;;;;;;;5.28;3.80;;;;;;;9.79;100.00;93560.28;2097918;28;20024;-83
2022/05/18 00:36:26;;;;;;;5.50;4.10;;;;;;;9.75;100.00;93565.66;2085419;28;20545;-83
2022/05/18 00:37:27;;;;;;;4.03;3.60;;;;;;;9.74;100.00;93566.03;2089611;28;20099;-83
2022/05/18 00:38:28;;;;;;;4.00;3.58;;;;;;;9.79;100.00;93557.59;2073227;28;20025;-82
2022/05/18 00:39:29;;;;;;;6.07;4.07;;;;;;;9.74;100.00;93566.78;2081522;28;20022;-82
2022/05/18 00:40:31;;;;;;;4.88;3.90;;;;;;;9.80;100.00;93559.13;2097932;28;20052;-82
2022/05/18 00:41:32;;;;;;;6.13;4.38;;;;;;;9.78;100.00;93553.41;2094262;28;20044;-83
2022/05/18 00:42:33;;;;;;;6.78;4.03;;;;;;;9.72;100.00;93563.78;2098020;28;20063;-82
2022/05/18 00:43:44;;;;;;;9.45;4.40;;;;;;;9.58;100.00;93556.69;2089539;28;20413;-83
2022/05/18 00:44:45;;;;;;;5.55;3.90;;;;;;;9.63;100.00;93555.50;2096067;28;20036;-82
2022/05/18 00:45:46;;;;;;;5.72;3.75;;;;;;;9.66;100.00;93552.03;2092142;28;20029;-83
2022/05/18 00:46:47;;;;;;;6.65;3.70;;;;;;;9.72;100.00;93557.69;2089630;28;20021;-83
2022/05/18 00:47:49;;;;;;;6.82;4.57;;;;;;;9.72;100.00;93557.69;2081576;28;20112;-82
2022/05/18 00:48:52;;;;;;;5.80;4.00;;;;;;;9.63;100.00;93571.50;2089585;28;20025;-82
2022/05/18 00:50:04;;;;;;;4.32;3.80;;;;;;;9.56;100.00;93550.22;2097784;28;20048;-83
2022/05/18 00:51:12;;;;;;;4.80;3.88;;;;;;;9.63;100.00;93558.16;2082903;28;20485;-83
2022/05/18 00:52:14;;;;;;;5.45;4.00;;;;;;;9.57;100.00;93554.44;2091338;28;20051;-83
2022/05/18 00:53:22;;;;;;;4.18;3.78;;;;;;;9.61;100.00;93557.03;2088445;28;20025;-82
2022/05/18 00:54:28;;;;;;;5.32;3.67;;;;;;;9.64;100.00;93553.56;2083555;28;20124;-84
2022/05/18 00:55:33;;;;;;;5.28;3.80;;;;;;;9.55;100.00;93560.13;2090418;28;20033;-83
2022/05/18 00:56:42;;;;;;;7.72;4.82;;;;;;;9.64;100.00;93565.00;2090002;28;20428;-83
2022/05/18 00:57:52;;;;;;;6.68;3.53;;;;;;;9.78;100.00;93559.50;2090524;28;20739;-83
2022/05/18 00:58:58;;;;;;;5.57;3.75;;;;;;;9.63;100.00;93560.06;2097927;28;20035;-83
2022/05/18 01:00:06;;;;;;;4.20;3.78;;;;;;;9.50;100.00;93557.16;2089674;28;20032;-84
2022/05/18 01:01:08;;;;;;;4.00;3.70;;;;;;;9.58;100.00;93555.94;2091691;28;20028;-85
2022/05/18 01:02:10;;;;;;;7.10;3.78;;;;;;;9.52;100.00;93554.84;2087722;28;20473;-82
2022/05/18 01:03:22;;;;;;;5.38;3.90;;;;;;;9.52;100.00;93552.91;2081619;28;20064;-84
2022/05/18 01:04:31;;;;;;;6.28;3.65;;;;;;;9.74;100.00;93553.44;2089458;28;20029;-84
2022/05/18 01:05:37;;;;;;;4.70;3.75;;;;;;;9.53;100.00;93551.78;2075290;28;20022;-82
2022/05/18 01:06:38;;;;;;;5.35;3.70;;;;;;;9.46;100.00;93559.84;2082323;28;20025;-84
2022/05/18 01:07:44;;;;;;;4.45;3.72;;;;;;;9.57;100.00;93557.84;2089432;28;20033;-83
2022/05/18 01:08:50;;;;;;;4.30;3.88;;;;;;;9.54;100.00;93550.63;2090212;28;20211;-83
2022/05/18 01:09:51;;;;;;;6.40;3.80;;;;;;;9.55;100.00;93556.72;2082050;28;20021;-83
2022/05/18 01:10:52;;;;;;;5.82;4.20;;;;;;;9.49;100.00;93550.31;2072994;28;20052;-84
2022/05/18 01:11:53;;;;;;;6.72;4.65;;;;;;;9.40;100.00;93560.69;2081024;28;20076;-84
2022/05/18 01:12:55;;;;;;;4.53;3.90;;;;;;;9.43;100.00;93557.22;2077226;28;20049;-83
2022/05/18 01:13:56;;;;;;;6.97;4.28;;;;;;;9.33;100.00;93554.25;2080914;28;20493;-84
2022/05/18 01:15:04;;;;;;;8.30;3.85;;;;;;;9.53;100.00;93556.38;2081026;28;20024;-83
2022/05/18 01:16:06;;;;;;;5.22;3.83;;;;;;;9.44;100.00;93561.41;2074780;28;20096;-83
2022/05/18 01:17:07;;;;;;;4.65;3.65;;;;;;;9.33;100.00;93572.19;2081177;28;20025;-83
2022/05/18 01:18:09;;;;;;;5.03;3.70;;;;;;;9.35;100.00;93559.22;2089372;28;20041;-83
2022/05/18 01:19:31;;;;;;;9.75;4.10;;;;;;;9.51;100.00;93559.41;2081094;28;20026;-82
2022/05/18 01:20:36;;;;;;;8.80;3.80;;;;;;;9.43;100.00;93571.31;2079497;28;20036;-83
2022/05/18 01:21:47;;;;;;;8.40;4.00;;;;;;;9.51;100.00;93567.44;2081520;28;20086;-83
2022/05/18 01:22:54;;;;;;;4.15;3.67;;;;;;;9.37;100.00;93570.25;2075916;28;20025;-83
2022/05/18 01:24:07;;;;;;;4.55;3.67;;;;;;;9.40;100.00;93569.47;2082691;28;20025;-83
2022/05/18 01:25:27;;;;;;;7.28;3.80;;;;;;;9.59;100.00;93570.78;2082737;28;20112;-83
2022/05/18 01:26:31;;;;;;;5.10;3.50;;;;;;;9.48;100.00;93573.56;2075349;28;20140;-83
2022/05/18 01:27:32;;;;;;;5.68;3.88;;;;;;;9.33;100.00;93580.19;2065598;28;20018;-84
2022/05/18 01:28:38;;;;;;;3.95;3.60;;;;;;;9.34;100.00;93571.03;2072972;28;20100;-83
2022/05/18 01:29:39;;;;;;;5.78;4.50;;;;;;;9.30;100.00;93572.97;2073436;28;20414;-83
2022/05/18 01:30:45;;;;;;;6.63;4.00;;;;;;;9.31;100.00;93572.59;2064733;28;20034;-83
2022/05/18 01:32:01;;;;;;;7.05;3.92;;;;;;;9.27;100.00;93571.88;2080206;28;20075;-83
2022/05/18 01:33:07;;;;;;;3.88;3.58;;;;;;;9.36;100.00;93576.75;2078411;28;20041;-83
2022/05/18 01:34:08;;;;;;;5.15;3.55;;;;;;;9.38;100.00;93577.09;2082415;28;20029;-83
2022/05/18 01:35:11;;;;;;;4.75;4.18;;;;;;;9.43;100.00;93578.56;2081033;28;20021;-84
2022/05/18 01:36:13;;;;;;;6.18;4.15;;;;;;;9.41;100.00;93573.63;2081665;28;20494;-83
2022/05/18 01:37:15;;;;;;;6.43;4.07;;;;;;;9.34;100.00;93577.13;2089227;28;20470;-83
2022/05/18 01:38:17;;;;;;;6.82;4.07;;;;;;;9.34;100.00;93571.78;2089536;28;20381;-83
2022/05/18 01:39:31;;;;;;;6.85;3.78;;;;;;;9.30;100.00;93575.63;2089307;28;20417;-83
2022/05/18 01:40:40;;;;;;;6.60;3.80;;;;;;;9.25;100.00;93576.06;2082854;28;20033;-83
2022/05/18 01:41:51;;;;;;;5.32;3.80;;;;;;;9.25;100.00;93578.75;2074771;28;20058;-83
2022/05/18 01:43:12;;;;;;;4.30;3.90;;;;;;;9.39;100.00;93572.50;2083838;28;20462;-83
2022/05/18 01:44:13;;;;;;;3.50;3.20;;;;;;;9.35;100.00;93577.91;2091885;28;20020;-83
2022/05/18 01:45:14;;;;;;;4.60;3.40;;;;;;;9.55;100.00;93580.75;2081056;28;20029;-83
2022/05/18 01:46:17;;;;;;;4.30;3.45;;;;;;;9.44;100.00;93580.84;2081091;28;20494;-83
2022/05/18 01:47:19;;;;;;;6.22;4.05;;;;;;;9.34;100.00;93576.38;2081237;28;20482;-83
2022/05/18 01:48:24;;;;;;;5.13;3.95;;;;;;;9.25;100.00;93587.50;2080983;28;20108;-83
2022/05/18 01:49:25;;;;;;;7.28;3.97;;;;;;;9.19;100.00;93577.66;2081383;28;20049;-83
2022/05/18 01:50:28;;;;;;;4.10;3.72;;;;;;;9.26;100.00;93577.56;2072772;28;20029;-83
2022/05/18 01:51:34;;;;;;;4.20;3.80;;;;;;;9.20;100.00;93585.25;2073365;28;20021;-83
2022/05/18 01:52:36;;;;;;;5.95;4.00;;;;;;;9.00;100.00;93582.41;2082438;28;20026;-83
2022/05/18 01:53:37;;;;;;;6.70;3.83;;;;;;;9.14;100.00;93588.75;2089159;28;20045;-83
2022/05/18 01:54:40;;;;;;;4.15;3.75;;;;;;;9.07;100.00;93576.22;2080869;28;20036;-83
2022/05/18 01:55:41;;;;;;;4.15;3.70;;;;;;;9.11;100.00;93576.22;2081342;28;20033;-83
2022/05/18 01:56:42;;;;;;;5.28;3.80;;;;;;;9.21;100.00;93578.00;2089211;28;20049;-82
2022/05/18 01:57:43;;;;;;;6.05;4.18;;;;;;;9.13;100.00;93573.88;2072950;28;20113;-83
2022/05/18 01:58:46;;;;;;;4.05;3.53;;;;;;;9.13;100.00;93572.00;2072759;28;20030;-84
2022/05/18 01:59:46;;;;;;;6.28;4.10;;;;;;;9.20;100.00;93579.16;2073000;28;20025;-83
2022/05/18 02:00:48;;;;;;;4.10;3.80;;;;;;;9.04;100.00;93577.78;2080701;28;20832;-83
2022/05/18 02:01:49;;;;;;;5.05;3.67;;;;;;;9.06;100.00;93569.38;2072726;28;20030;-82
2022/05/18 02:02:50;;;;;;;3.97;3.42;;;;;;;8.99;100.00;93572.84;2089067;28;20036;-82
2022/05/18 02:03:51;;;;;;;4.88;4.00;;;;;;;9.15;100.00;93580.34;2089017;28;20025;-82
2022/05/18 02:04:52;;;;;;;7.50;3.90;;;;;;;9.19;100.00;93572.31;2072501;28;20053;-82
2022/05/18 02:05:53;;;;;;;4.70;3.88;;;;;;;9.25;100.00;93573.41;2080888;28;20389;-83
2022/05/18 02:07:05;;;;;;;4.05;3.30;;;;;;;9.11;100.00;93576.97;2072726;28;20026;-83
2022/05/18 02:08:06;;;;;;;3.78;3.42;;;;;;;9.03;100.00;93581.59;2083930;28;20807;-83
2022/05/18 02:09:07;;;;;;;4.35;3.65;;;;;;;9.07;100.00;93573.56;2086951;28;20113;-84
2022/05/18 02:10:09;;;;;;;5.13;3.63;;;;;;;9.15;100.00;93571.59;2072751;28;20022;-82
2022/05/18 02:11:19;;;;;;;4.60;4.00;;;;;;;9.15;100.00;93580.34;2064862;28;20559;-83
2022/05/18 02:12:20;;;;;;;5.13;3.83;;;;;;;9.11;100.00;93576.97;2067012;28;20061;-82
2022/05/18 02:13:21;;;;;;;5.93;3.83;;;;;;;9.03;100.00;93576.25;2071723;28;20045;-83
2022/05/18 02:14:23;;;;;;;4.13;3.70;;;;;;;9.08;100.00;93578.50;2080747;28;20028;-82
2022/05/18 02:15:24;;;;;;;5.95;4.15;;;;;;;9.01;100.00;93589.22;2089167;28;20108;-82
2022/05/18 02:16:25;;;;;;;4.38;3.42;;;;;;;8.96;100.00;93583.56;2080809;28;20032;-83
2022/05/18 02:17:26;;;;;;;7.07;3.45;;;;;;;8.92;100.00;93588.94;2089122;28;20017;-83
2022/05/18 02:18:26;;;;;;;6.85;3.78;;;;;;;9.10;100.00;93583.44;2089036;28;20116;-83
2022/05/18 02:19:27;;;;;;;5.43;3.78;;;;;;;8.98;100.00;93586.59;2072720;28;20084;-83
2022/05/18 02:20:29;;;;;;;4.32;3.88;;;;;;;8.95;100.00;93590.78;2081006;28;20055;-82
2022/05/18 02:21:30;;;;;;;4.13;3.70;;;;;;;8.86;100.00;93593.16;2080843;28;20022;-83
2022/05/18 02:22:31;;;;;;;7.38;3.92;;;;;;;8.92;100.00;93588.94;2080892;28;20025;-84
2022/05/18 02:23:32;;;;;;;5.20;3.55;;;;;;;8.89;100.00;93576.38;2080781;28;20029;-82
2022/05/18 02:24:33;;;;;;;7.28;3.80;;;;;;;8.95;100.00;93588.13;2080839;28;20025;-82
2022/05/18 02:25:37;;;;;;;4.05;3.70;;;;;;;8.86;100.00;93579.81;2089085;28;20024;-83
2022/05/18 02:26:38;;;;;;;3.47;3.17;;;;;;;8.95;100.00;93588.13;2089393;28;20016;-83
2022/05/18 02:27:47;;;;;;;6.30;3.70;;;;;;;8.86;100.00;93592.41;2089005;28;20082;-82
2022/05/18 02:28:48;;;;;;;6.35;3.60;;;;;;;8.89;100.00;93587.03;2081845;28;20184;-83
2022/05/18 02:29:50;;;;;;;4.50;3.67;;;;;;;9.14;100.00;93578.84;2072689;28;20061;-83
2022/05/18 02:30:51;;;;;;;5.10;4.18;;;;;;;8.92;100.00;93588.19;2080992;28;20030;-84
2022/05/18 02:31:52;;;;;;;3.78;3.45;;;;;;;8.90;100.00;93588.56;2088975;28;20029;-82
2022/05/18 02:32:53;;;;;;;4.00;3.45;;;;;;;8.86;100.00;93589.72;2080835;28;20025;-83
2022/05/18 02:33:54;;;;;;;4.28;3.88;;;;;;;8.95;100.00;93595.38;2088838;28;20025;-83
2022/05/18 02:34:55;;;;;;;5.13;4.10;;;;;;;8.90;100.00;93585.13;2080876;28;20044;-82
2022/05/18 02:35:56;;;;;;;4.70;3.55;;;;;;;8.75;100.00;93593.25;2080836;28;20041;-83
2022/05/18 02:36:57;;;;;;;6.25;3.58;;;;;;;8.85;100.00;93590.88;2080983;28;20025;-83
2022/05/18 02:37:58;;;;;;;5.57;3.83;;;;;;;8.72;100.00;93593.25;2080719;28;20084;-84
2022/05/18 02:38:59;;;;;;;6.15;3.50;;;;;;;8.64;100.00;93592.53;2073257;28;20029;-84
2022/05/18 02:40:00;;;;;;;5.25;3.72;;;;;;;8.88;100.00;93596.19;2080648;28;20037;-83
2022/05/18 02:41:02;;;;;;;3.75;3.35;;;;;;;8.82;100.00;93595.09;2080728;28;20033;-84
2022/05/18 02:42:03;;;;;;;6.05;4.05;;;;;;;8.78;100.00;93591.69;2088991;28;20135;-83
2022/05/18 02:43:04;;;;;;;5.65;4.28;;;;;;;8.71;100.00;93599.75;2097243;28;20528;-83
2022/05/18 02:44:05;;;;;;;4.78;4.00;;;;;;;8.73;100.00;93600.09;2097236;28;20032;-83
2022/05/18 02:45:07;;;;;;;5.72;4.10;;;;;;;9.03;100.00;93591.50;2097209;28;20032;-83
2022/05/18 02:46:13;;;;;;;7.78;4.05;;;;;;;8.86;100.00;93600.38;2088856;28;20071;-83
2022/05/18 02:47:15;;;;;;;5.00;3.92;;;;;;;8.79;100.00;93593.22;2089596;28;20119;-83
2022/05/18 02:48:17;;;;;;;4.30;3.90;;;;;;;8.78;100.00;93602.34;2080771;28;20029;-83
2022/05/18 02:49:18;;;;;;;8.45;4.00;;;;;;;8.78;100.00;93603.13;2080898;28;20490;-83
2022/05/18 02:50:19;;;;;;;4.68;4.10;;;;;;;8.65;100.00;93595.97;2087504;28;20017;-83
2022/05/18 02:51:22;;;;;;;5.53;3.70;;;;;;;8.80;100.00;93594.72;2088894;28;20029;-83
2022/05/18 02:52:23;;;;;;;5.30;4.05;;;;;;;8.72;100.00;93595.94;2089167;28;20032;-83
2022/05/18 02:53:24;;;;;;;4.75;3.90;;;;;;;8.82;100.00;93595.09;2080620;28;20025;-84
2022/05/18 02:57:05;;;;;;;4.47;4.05;;;;;;;8.78;100.00;93605.78;2098018;28;20692;-84
2022/05/18 02:58:06;;;;;;;6.03;3.83;;;;;;;8.90;100.00;93598.47;2088474;28;20568;-82
2022/05/18 02:59:07;;;;;;;5.32;3.40;;;;;;;8.74;100.00;93605.06;2081597;28;20025;-83
2022/05/18 03:00:08;;;;;;;8.40;3.90;;;;;;;8.67;100.00;93601.69;2081746;28;20121;-83
2022/05/18 03:01:13;;;;;;;3.95;3.65;;;;;;;8.63;100.00;93603.59;2080332;28;20474;-82
2022/05/18 03:02:14;;;;;;;4.50;4.10;;;;;;;8.63;100.00;93608.94;2080848;28;20029;-83
2022/05/18 03:03:15;;;;;;;4.90;3.63;;;;;;;8.58;100.00;93602.88;2072443;28;20022;-82
2022/05/18 03:04:16;;;;;;;4.13;3.70;;;;;;;8.68;100.00;93613.84;2072467;28;20064;-82
2022/05/18 03:05:17;;;;;;;4.47;3.92;;;;;;;8.55;100.00;93603.63;2080601;28;20487;-83
2022/05/18 03:06:20;;;;;;;6.00;4.00;;;;;;;8.58;100.00;93613.53;2080565;28;20021;-83
2022/05/18 03:07:21;;;;;;;4.00;3.60;;;;;;;8.57;100.00;93606.69;2073010;28;20032;-83
2022/05/18 03:08:22;;;;;;;4.72;3.90;;;;;;;8.75;100.00;93608.47;2072641;28;20406;-83
2022/05/18 03:09:23;;;;;;;4.00;3.63;;;;;;;8.62;100.00;93604.75;2076768;28;20021;-82
2022/05/18 03:10:25;;;;;;;6.38;3.58;;;;;;;8.60;100.00;93607.03;2080673;28;20857;-83
2022/05/18 03:11:25;;;;;;;4.43;4.03;;;;;;;8.70;100.00;93604.31;2080675;28;20075;-84
2022/05/18 03:12:26;;;;;;;4.53;4.10;;;;;;;8.64;100.00;93613.88;2072466;28;20076;-84
2022/05/18 03:13:28;;;;;;;3.95;3.60;;;;;;;8.61;100.00;93609.34;2064300;28;20121;-84
2022/05/18 03:14:29;;;;;;;6.30;4.00;;;;;;;8.62;100.00;93607.41;2080564;28;20068;-83
2022/05/18 03:15:30;;;;;;;5.65;4.57;;;;;;;8.75;100.00;93611.13;2088757;28;20020;-83
2022/05/18 03:16:31;;;;;;;5.03;4.22;;;;;;;8.62;100.00;93610.09;2089209;28;20497;-83
2022/05/18 03:17:32;;;;;;;4.18;3.88;;;;;;;8.63;100.00;93608.94;2090299;28;20021;-82
2022/05/18 03:18:33;;;;;;;5.00;3.80;;;;;;;8.58;100.00;93608.19;2065881;28;20094;-83
2022/05/18 03:19:34;;;;;;;4.63;4.15;;;;;;;8.57;100.00;93606.69;2070653;28;20029;-83
2022/05/18 03:24:33;;;;;;;4.33;3.80;;;;;;;8.55;100.00;93603.63;2084417;28;20029;-82
2022/05/18 03:25:34;;;;;;;4.78;4.20;;;;;;;8.54;100.00;93606.69;2081923;28;20494;-83
2022/05/18 03:26:35;;;;;;;4.28;3.88;;;;;;;8.55;100.00;93608.97;2081944;28;20189;-83
2022/05/18 03:27:43;;;;;;;5.85;4.00;;;;;;;8.55;100.00;93608.22;2073812;28;20112;-83
2022/05/18 03:28:46;;;;;;;4.32;3.95;;;;;;;8.52;100.00;93599.09;2075806;28;20033;-83
2022/05/18 03:29:47;;;;;;;5.60;4.00;;;;;;;8.54;100.00;93604.78;2082212;28;20090;-83
2022/05/18 03:30:48;;;;;;;4.13;3.72;;;;;;;8.57;100.00;93609.34;2081845;28;20135;-82
2022/05/18 03:31:48;;;;;;;6.63;4.07;;;;;;;8.52;100.00;93604.44;2073878;28;20483;-83
2022/05/18 03:32:49;;;;;;;6.00;4.05;;;;;;;8.45;100.00;93606.38;2068831;28;20030;-83
2022/05/18 03:33:51;;;;;;;4.80;3.72;;;;;;;8.44;100.00;93613.63;2090130;28;20021;-83
2022/05/18 03:34:52;;;;;;;8.02;4.20;;;;;;;8.54;100.00;93607.47;2098308;28;20078;-83
2022/05/18 03:35:53;;;;;;;4.20;3.83;;;;;;;8.50;100.00;93612.03;2090196;28;20033;-83
2022/05/18 03:36:54;;;;;;;5.25;3.90;;;;;;;8.49;100.00;93607.88;2098029;28;20157;-82
2022/05/18 03:37:55;;;;;;;4.40;3.92;;;;;;;8.36;100.00;93612.09;2081950;28;20478;-83
2022/05/18 03:38:56;;;;;;;6.43;4.05;;;;;;;8.36;100.00;93614.75;2073558;28;20451;-82
2022/05/18 03:39:57;;;;;;;6.55;4.20;;;;;;;8.41;100.00;93610.97;2081865;28;20405;-82
2022/05/18 03:40:58;;;;;;;4.43;3.75;;;;;;;8.50;100.00;93616.63;2081710;28;20030;-83
2022/05/18 03:41:59;;;;;;;4.25;3.85;;;;;;;8.56;100.00;93604.41;2081951;28;20029;-83
2022/05/18 03:43:01;;;;;;;4.30;3.90;;;;;;;8.53;100.00;93616.59;2073993;28;20497;-82
2022/05/18 03:44:03;;;;;;;6.45;4.10;;;;;;;8.39;100.00;93606.03;2073778;28;20029;-83
2022/05/18 03:45:04;;;;;;;5.88;3.92;;;;;;;8.37;100.00;93610.22;2082079;28;20582;-84
2022/05/18 03:46:07;;;;;;;6.75;4.47;;;;;;;8.47;100.00;93612.84;2081946;28;20033;-83
2022/05/18 03:47:09;;;;;;;9.05;4.57;;;;;;;8.43;100.00;93612.09;2087552;28;20025;-83
2022/05/18 03:48:11;;;;;;;6.05;4.95;;;;;;;8.36;100.00;93612.09;2082112;28;20025;-83
2022/05/18 03:49:12;;;;;;;4.93;4.25;;;;;;;8.45;100.00;93617.03;2073850;28;20688;-82
2022/05/18 03:50:13;;;;;;;5.22;4.07;;;;;;;8.38;100.00;93615.16;2081701;28;20029;-82
2022/05/18 03:51:18;;;;;;;6.78;4.57;;;;;;;8.42;100.00;93615.13;2081725;28;20033;-82
2022/05/18 03:52:19;;;;;;;7.13;3.92;;;;;;;8.40;100.00;93617.44;2082983;28;20025;-83
2022/05/18 03:53:20;;;;;;;4.53;4.03;;;;;;;8.48;100.00;93627.69;2090096;28;20021;-83
2022/05/18 03:54:21;;;;;;;5.45;4.00;;;;;;;8.43;100.00;93620.09;2089902;28;20032;-83
2022/05/18 03:55:22;;;;;;;4.13;3.72;;;;;;;8.37;100.00;93623.53;2098315;28;20036;-82
2022/05/18 03:56:24;;;;;;;4.43;4.03;;;;;;;8.36;100.00;93625.41;2081811;28;20025;-83
2022/05/18 03:57:25;;;;;;;5.93;3.85;;;;;;;8.39;100.00;93621.25;2085660;28;20047;-83
2022/05/18 03:58:26;;;;;;;6.05;4.00;;;;;;;8.37;100.00;93621.63;2081869;28;20072;-83
2022/05/18 03:59:27;;;;;;;4.43;4.03;;;;;;;8.44;100.00;93618.19;2081740;28;20026;-83
2022/05/18 04:00:30;;;;;;;4.00;3.60;;;;;;;8.44;100.00;93624.28;2081815;28;20120;-83
2022/05/18 04:01:31;;;;;;;5.25;3.63;;;;;;;8.43;100.00;93628.09;2083719;28;20025;-82
2022/05/18 04:02:32;;;;;;;4.78;4.25;;;;;;;8.40;100.00;93622.78;2073538;28;20541;-82
2022/05/18 04:03:35;;;;;;;3.95;3.65;;;;;;;8.45;100.00;93630.34;2081703;28;20033;-83
2022/05/18 04:04:36;;;;;;;8.00;3.80;;;;;;;8.44;100.00;93631.50;2081995;28;20037;-83
2022/05/18 04:05:38;;;;;;;5.13;4.38;;;;;;;8.22;100.00;93630.81;2090017;28;20025;-82
2022/05/18 04:06:39;;;;;;;6.65;3.90;;;;;;;8.29;100.00;93636.84;2081957;28;20454;-83
2022/05/18 04:07:39;;;;;;;4.68;3.95;;;;;;;8.39;100.00;93635.34;2073458;28;20032;-83
2022/05/18 04:08:40;;;;;;;4.45;4.03;;;;;;;8.42;100.00;93634.53;2073559;28;20061;-83
2022/05/18 04:09:41;;;;;;;5.88;3.88;;;;;;;8.46;100.00;93634.53;2096398;28;20532;-83
2022/05/18 04:10:43;;;;;;;6.22;4.00;;;;;;;8.34;100.00;93641.03;2081564;28;20080;-82
2022/05/18 04:11:43;;;;;;;4.72;3.70;;;;;;;8.42;100.00;93631.13;2079880;28;20052;-82
2022/05/18 04:12:45;;;;;;;5.32;3.80;;;;;;;8.41;100.00;93640.25;2084042;28;20025;-83
2022/05/18 04:13:46;;;;;;;4.97;3.90;;;;;;;8.43;100.00;93641.41;2081644;28;20064;-83
2022/05/18 04:14:47;;;;;;;3.83;3.53;;;;;;;8.50;100.00;93636.03;2081632;28;20053;-83
2022/05/18 04:15:48;;;;;;;4.53;3.70;;;;;;;8.51;100.00;93640.19;2081672;28;20029;-82
2022/05/18 04:16:50;;;;;;;4.40;3.90;;;;;;;8.48;100.00;93646.31;2073510;28;20025;-83
2022/05/18 04:17:51;;;;;;;5.68;3.53;;;;;;;8.46;100.00;93642.53;2073593;28;20044;-82
2022/05/18 04:18:51;;;;;;;7.38;3.80;;;;;;;8.48;100.00;93640.25;2081672;28;20494;-83
2022/05/18 04:19:53;;;;;;;6.07;3.92;;;;;;;8.51;100.00;93639.44;2073483;28;20417;-83
2022/05/18 04:20:56;;;;;;;5.18;3.95;;;;;;;8.54;100.00;93649.31;2081789;28;20037;-83
2022/05/18 04:21:57;;;;;;;4.57;3.90;;;;;;;8.64;100.00;93645.09;2098327;28;20100;-82
2022/05/18 04:22:58;;;;;;;6.47;4.40;;;;;;;8.62;100.00;93647.41;2089785;28;20017;-83
2022/05/18 04:23:59;;;;;;;4.95;3.97;;;;;;;8.56;100.00;93647.81;2073402;28;20119;-83
2022/05/18 04:25:01;;;;;;;6.72;4.32;;;;;;;8.62;100.00;93648.16;2073358;28;20053;-82
2022/05/18 04:26:03;;;;;;;6.22;3.88;;;;;;;8.61;100.00;93643.97;2073802;28;20018;-83
2022/05/18 04:27:06;;;;;;;5.30;4.32;;;;;;;8.63;100.00;93646.25;2081684;28;20021;-83
2022/05/18 04:28:08;;;;;;;4.13;3.78;;;;;;;8.63;100.00;93659.56;2081694;28;20017;-83
2022/05/18 04:29:11;;;;;;;6.07;3.80;;;;;;;8.59;100.00;93648.91;2082190;28;20021;-83
2022/05/18 04:30:12;;;;;;;4.78;4.38;;;;;;;8.62;100.00;93650.81;2083713;28;20402;-84
2022/05/18 04:31:13;;;;;;;5.80;4.07;;;;;;;8.67;100.00;93661.06;2081495;28;20033;-83
2022/05/18 04:32:14;;;;;;;4.82;4.32;;;;;;;8.65;100.00;93659.91;2081623;28;20026;-83
2022/05/18 04:33:20;;;;;;;5.95;4.20;;;;;;;8.65;100.00;93654.59;2098049;28;20032;-83
2022/05/18 04:34:22;;;;;;;5.18;3.95;;;;;;;8.67;100.00;93661.06;2089628;28;20025;-83
2022/05/18 04:35:25;;;;;;;4.97;3.83;;;;;;;8.71;100.00;93656.47;2073371;28;20029;-83
2022/05/18 04:36:26;;;;;;;5.50;4.53;;;;;;;8.79;100.00;93668.59;2082103;28;20104;-83
2022/05/18 04:37:27;;;;;;;5.95;4.60;;;;;;;8.83;100.00;93663.25;2097991;28;20488;-83
2022/05/18 04:38:29;;;;;;;5.15;4.03;;;;;;;8.84;100.00;93664.78;2089807;28;20017;-82
2022/05/18 04:39:30;;;;;;;5.80;3.92;;;;;;;8.80;100.00;93664.78;2077954;28;20034;-82
2022/05/18 04:40:31;;;;;;;4.70;4.13;;;;;;;8.84;100.00;93659.44;2073321;28;20136;-82
2022/05/18 04:41:38;;;;;;;5.10;4.32;;;;;;;8.85;100.00;93658.28;2073334;28;20063;-82
2022/05/18 04:42:39;;;;;;;6.30;4.25;;;;;;;8.86;100.00;93665.13;2083208;28;20083;-83
2022/05/18 04:43:40;;;;;;;6.75;4.47;;;;;;;8.86;100.00;93664.38;2089620;28;20029;-83
2022/05/18 04:44:41;;;;;;;7.93;4.50;;;;;;;8.90;100.00;93665.88;2097825;28;20020;-82
2022/05/18 04:45:45;;;;;;;6.28;4.60;;;;;;;8.93;100.00;93667.75;2089240;28;20021;-83
2022/05/18 04:46:45;;;;;;;5.10;4.07;;;;;;;8.96;100.00;93660.91;2089762;28;20028;-83
2022/05/18 04:47:47;;;;;;;6.88;4.10;;;;;;;9.00;100.00;93670.38;2089560;28;20044;-82
2022/05/18 04:48:48;;;;;;;5.63;4.00;;;;;;;9.03;100.00;93663.50;2081119;28;20036;-84
2022/05/18 04:49:50;;;;;;;10.07;4.63;;;;;;;9.03;100.00;93666.16;2079676;28;20032;-82
2022/05/18 04:50:52;;;;;;;6.25;4.35;;;;;;;9.05;100.00;93672.63;2085081;28;20047;-82
2022/05/18 04:51:53;;;;;;;8.20;4.40;;;;;;;9.07;100.00;93670.31;2081930;28;20029;-84
2022/05/18 04:52:54;;;;;;;5.65;4.88;;;;;;;9.15;100.00;93675.59;2079984;28;20103;-82
2022/05/18 04:53:54;;;;;;;5.63;4.10;;;;;;;9.16;100.00;93672.53;2087857;28;20029;-83
2022/05/18 04:54:55;;;;;;;7.60;5.05;;;;;;;9.19;100.00;93671.75;2096098;28;20111;-83
2022/05/18 04:55:56;;;;;;;6.57;4.78;;;;;;;9.20;100.00;93678.59;2078307;28;20025;-82
2022/05/18 04:56:58;;;;;;;4.68;4.20;;;;;;;9.23;100.00;93680.50;2079676;28;20076;-81
2022/05/18 04:58:03;;;;;;;8.05;4.63;;;;;;;9.26;100.00;93685.06;2080098;28;20033;-83
2022/05/18 04:59:04;;;;;;;6.18;4.35;;;;;;;9.30;100.00;93675.09;2089003;28;20028;-82
2022/05/18 05:00:10;;;;;;;11.98;4.72;;;;;;;9.34;100.00;93683.81;2096641;28;20086;-83
2022/05/18 05:01:11;;;;;;;9.02;5.30;;;;;;;9.43;100.00;93683.38;2080388;28;20676;-87